Time;durP1;ratioP1;P1;durP2;ratioP2;P2;SDS_P1;SDS_P2;PMS_P1;PMS_P2;Temp;Humidity;BMP_temperature;BMP_pressure;BME280_temperature;BME280_humidity;BME280_pressure;Samples;Min_cycle;Max_cycle;Signal;HPM_P1;HPM_P2
2021/01/19 00:00:59;;;;;;;37.83;17.65;;;;;;;-3.18;33.72;100927.48;1817671;78;21786;-77
2021/01/19 00:03:28;;;;;;;35.70;17.57;;;;;;;-3.15;33.76;100926.03;1812475;78;21550;-78
2021/01/19 00:05:56;;;;;;;47.88;20.12;;;;;;;-3.14;33.74;100928.19;1805477;78;21577;-77
2021/01/19 00:08:24;;;;;;;40.30;18.40;;;;;;;-3.11;33.60;100925.47;1816600;78;21201;-79
2021/01/19 00:10:52;;;;;;;43.28;19.12;;;;;;;-3.10;33.52;100922.77;1816190;78;21118;-77
2021/01/19 00:13:20;;;;;;;38.20;19.52;;;;;;;-3.10;33.46;100926.70;1811006;78;22275;-79
2021/01/19 00:15:48;;;;;;;41.63;19.92;;;;;;;-3.09;33.52;100926.24;1815517;78;21197;-75
2021/01/19 00:18:16;;;;;;;43.58;20.00;;;;;;;-3.09;33.53;100922.31;1815573;77;21162;-78
2021/01/19 00:20:45;;;;;;;44.53;21.02;;;;;;;-3.08;33.53;100933.22;1809898;78;21617;-77
2021/01/19 00:23:13;;;;;;;39.10;18.85;;;;;;;-3.11;33.57;100930.25;1814428;78;21145;-80
2021/01/19 00:25:41;;;;;;;45.38;19.77;;;;;;;-3.10;33.56;100938.49;1814299;78;21624;-77
2021/01/19 00:28:11;;;;;;;43.52;22.27;;;;;;;-3.10;33.61;100935.88;1805484;79;21167;-76
2021/01/19 00:30:43;;;;;;;40.12;18.77;;;;;;;-3.08;33.61;100932.76;1823450;78;21161;-78
2021/01/19 00:33:11;;;;;;;39.85;19.23;;;;;;;-3.09;33.49;100934.98;1817034;78;21169;-76
2021/01/19 00:35:40;;;;;;;37.80;18.50;;;;;;;-3.12;33.56;100942.95;1811059;78;21165;-77
2021/01/19 00:38:09;;;;;;;40.95;19.00;;;;;;;-3.12;33.77;100949.97;1815808;78;21637;-77
2021/01/19 00:40:37;;;;;;;48.23;22.40;;;;;;;-3.13;33.68;100941.25;1811510;78;21170;-77
2021/01/19 00:43:05;;;;;;;39.03;18.65;;;;;;;-3.14;33.68;100946.07;1811513;78;21525;-76
2021/01/19 00:45:33;;;;;;;45.55;19.98;;;;;;;-3.14;33.75;100943.45;1826709;78;21178;-75
2021/01/19 00:48:01;;;;;;;41.92;20.68;;;;;;;-3.14;33.79;100941.30;1814736;78;21147;-76
2021/01/19 00:50:30;;;;;;;42.20;19.65;;;;;;;-3.13;33.73;100939.09;1819065;78;21265;-76
2021/01/19 00:52:58;;;;;;;39.33;17.42;;;;;;;-3.14;33.75;100939.52;1814540;78;21174;-77
2021/01/19 00:55:26;;;;;;;33.95;17.15;;;;;;;-3.12;33.76;100929.00;1819109;78;21169;-75
2021/01/19 00:57:54;;;;;;;37.93;19.82;;;;;;;-3.12;33.54;100933.78;1805780;79;21486;-76
2021/01/19 01:00:24;;;;;;;37.88;18.67;;;;;;;-3.16;33.66;100923.48;1810258;78;21130;-78
2021/01/19 01:02:53;;;;;;;42.98;18.45;;;;;;;-3.15;33.72;100927.80;1807609;78;22221;-75
2021/01/19 01:05:21;;;;;;;41.42;19.77;;;;;;;-3.34;33.98;100923.73;1815798;78;21165;-76
2021/01/19 01:07:49;;;;;;;37.58;17.70;;;;;;;-3.41;34.19;100920.94;1815917;78;21190;-76
2021/01/19 01:10:17;;;;;;;42.58;20.45;;;;;;;-3.40;34.19;100926.59;1819447;78;21165;-76
2021/01/19 01:12:45;;;;;;;43.20;20.85;;;;;;;-3.41;34.17;100927.48;1806376;78;21185;-77
2021/01/19 01:15:17;;;;;;;38.00;18.12;;;;;;;-3.42;34.23;100920.09;1809615;78;21641;-77
2021/01/19 01:17:45;;;;;;;32.23;16.27;;;;;;;-3.55;34.43;100928.45;1814775;78;21209;-77
2021/01/19 01:20:14;;;;;;;35.88;17.70;;;;;;;-3.61;34.44;100930.40;1810315;78;21368;-76
2021/01/19 01:22:44;;;;;;;38.60;17.55;;;;;;;-3.65;34.51;100927.49;1805704;79;21424;-76
2021/01/19 01:25:16;;;;;;;36.42;17.87;;;;;;;-3.64;34.59;100931.81;1821070;77;21175;-75
2021/01/19 01:27:45;;;;;;;43.95;21.10;;;;;;;-3.63;34.71;100930.08;1809780;78;21328;-76
2021/01/19 01:30:15;;;;;;;36.20;17.50;;;;;;;-3.62;34.61;100926.08;1810039;78;21191;-77
2021/01/19 01:32:51;;;;;;;36.53;18.62;;;;;;;-3.33;34.24;100928.05;1814138;78;21145;-77
2021/01/19 01:35:18;;;;;;;36.30;17.55;;;;;;;-3.20;34.00;100927.13;1818011;78;21153;-74
2021/01/19 01:37:51;;;;;;;40.00;17.90;;;;;;;-3.16;33.85;100926.11;1815796;77;21158;-76
2021/01/19 01:40:22;;;;;;;38.23;17.98;;;;;;;-3.17;33.88;100920.02;1814370;78;21636;-76
2021/01/19 01:42:58;;;;;;;40.28;18.52;;;;;;;-3.13;33.76;100926.84;1814851;77;21181;-77
2021/01/19 01:45:28;;;;;;;40.55;18.80;;;;;;;-3.08;33.65;100930.59;1828150;77;21184;-77
2021/01/19 01:47:57;;;;;;;33.78;18.87;;;;;;;-3.03;33.55;100925.17;1811682;78;21198;-77
2021/01/19 01:50:26;;;;;;;40.08;18.30;;;;;;;-3.06;33.61;100920.43;1818104;78;21174;-77
2021/01/19 01:52:53;;;;;;;41.15;19.37;;;;;;;-3.06;33.45;100922.20;1821297;78;21361;-76
2021/01/19 01:55:21;;;;;;;39.67;19.17;;;;;;;-3.10;33.49;100928.02;1817438;77;21209;-77
2021/01/19 01:57:49;;;;;;;35.80;18.27;;;;;;;-3.11;33.46;100925.47;1810934;78;21576;-77
2021/01/19 02:00:18;;;;;;;40.60;19.50;;;;;;;-3.13;33.55;100928.16;1787713;78;21204;-77
2021/01/19 02:02:52;;;;;;;39.35;19.27;;;;;;;-3.14;33.55;100915.94;1811749;78;21028;-77
2021/01/19 02:05:24;;;;;;;44.77;20.35;;;;;;;-3.14;33.52;100925.11;1805599;79;22611;-75
2021/01/19 02:08:17;;;;;;;40.78;18.92;;;;;;;-3.14;33.59;100913.32;1805917;79;21149;-76
2021/01/19 02:11:28;;;;;;;40.92;18.37;;;;;;;-3.13;33.58;100911.13;1805760;79;22016;-76
2021/01/19 02:14:13;;;;;;;44.95;20.05;;;;;;;-3.11;33.56;100912.36;1805460;79;21138;-74
2021/01/19 02:16:59;;;;;;;45.67;20.90;;;;;;;-3.08;33.48;100907.86;1805886;79;21158;-75
2021/01/19 02:20:03;;;;;;;37.10;18.35;;;;;;;-3.06;33.57;100907.33;1806180;79;21361;-75
2021/01/19 02:23:00;;;;;;;40.78;19.50;;;;;;;-3.08;33.62;100903.93;1806073;79;21157;-76
2021/01/19 02:25:39;;;;;;;32.60;17.62;;;;;;;-3.09;33.48;100902.23;1805964;79;21205;-75
2021/01/19 02:28:47;;;;;;;37.35;19.75;;;;;;;-3.10;33.38;100903.12;1805942;79;21185;-76
2021/01/19 02:31:42;;;;;;;33.33;16.02;;;;;;;-3.12;33.36;100902.34;1805818;79;22272;-76
2021/01/19 02:34:56;;;;;;;41.95;20.65;;;;;;;-3.12;33.44;100906.27;1797372;79;21553;-76
2021/01/19 02:37:32;;;;;;;39.08;17.17;;;;;;;-3.19;33.60;100895.63;1805637;79;21184;-77
2021/01/19 02:40:08;;;;;;;39.58;18.98;;;;;;;-3.15;33.67;100906.38;1806153;79;21652;-77
2021/01/19 02:43:09;;;;;;;41.88;19.55;;;;;;;-3.16;33.57;100901.22;1805470;79;21157;-75
2021/01/19 02:45:38;;;;;;;40.65;17.73;;;;;;;-3.18;33.62;100901.28;1805695;79;21212;-79
2021/01/19 02:48:06;;;;;;;39.83;18.20;;;;;;;-3.16;33.64;100900.75;1805898;79;21358;-76
2021/01/19 02:50:34;;;;;;;37.40;18.55;;;;;;;-3.16;33.78;100898.13;1805759;79;21185;-75
2021/01/19 02:53:02;;;;;;;37.90;18.98;;;;;;;-3.16;33.76;100905.99;1805968;79;21125;-76
2021/01/19 02:55:29;;;;;;;36.65;18.12;;;;;;;-3.15;33.70;100905.53;1805655;79;21192;-77
2021/01/19 02:58:38;;;;;;;34.95;16.37;;;;;;;-3.15;33.68;100904.22;1781572;79;21150;-76
2021/01/19 03:01:18;;;;;;;43.80;19.82;;;;;;;-3.10;33.63;100903.12;1797595;78;21362;-76
2021/01/19 03:03:49;;;;;;;39.67;19.02;;;;;;;-3.14;33.34;100901.53;1805566;79;21468;-77
2021/01/19 03:06:20;;;;;;;41.83;19.00;;;;;;;-3.24;33.52;100906.74;1806813;78;21163;-77
2021/01/19 03:08:49;;;;;;;43.05;19.05;;;;;;;-3.23;33.65;100894.49;1810074;78;21166;-78
2021/01/19 03:11:19;;;;;;;39.60;18.17;;;;;;;-3.22;33.77;100897.08;1802038;77;21168;-75
2021/01/19 03:13:47;;;;;;;37.73;18.07;;;;;;;-3.22;33.86;100898.38;1817566;77;21328;-78
2021/01/19 03:16:16;;;;;;;40.40;18.00;;;;;;;-3.19;33.94;100902.17;1844937;76;21138;-78
2021/01/19 03:18:45;;;;;;;37.80;17.67;;;;;;;-3.13;33.79;100895.41;1823616;78;21099;-77
2021/01/19 03:21:13;;;;;;;36.53;17.35;;;;;;;-3.09;33.63;100896.99;1836499;77;21206;-78
2021/01/19 03:23:42;;;;;;;37.23;18.00;;;;;;;-3.10;33.55;100893.95;1831082;77;21692;-77
2021/01/19 03:26:10;;;;;;;36.28;15.88;;;;;;;-3.10;33.43;100903.12;1823467;77;22266;-76
2021/01/19 03:28:38;;;;;;;37.80;18.73;;;;;;;-3.10;33.49;100900.50;1825787;77;21228;-77
2021/01/19 03:31:07;;;;;;;42.58;20.62;;;;;;;-3.09;33.45;100902.66;1826538;77;21063;-76
2021/01/19 03:33:34;;;;;;;40.75;19.15;;;;;;;-3.09;33.38;100902.23;1816730;79;21496;-75
2021/01/19 03:36:03;;;;;;;42.80;20.35;;;;;;;-3.09;33.26;100909.21;1843675;76;21130;-76
2021/01/19 03:38:30;;;;;;;41.88;18.85;;;;;;;-3.07;33.24;100900.85;1814847;77;21381;-77
2021/01/19 03:40:58;;;;;;;31.80;15.78;;;;;;;-3.04;33.12;100902.05;1845812;76;21222;-76
2021/01/19 03:43:27;;;;;;;39.00;18.65;;;;;;;-3.04;33.07;100906.41;1810856;78;21221;-75
2021/01/19 03:46:13;;;;;;;41.23;19.10;;;;;;;-3.07;33.09;100906.09;1817504;77;21149;-78
2021/01/19 03:48:41;;;;;;;39.53;18.65;;;;;;;-3.10;33.10;100906.20;1820966;77;21530;-77
2021/01/19 03:51:08;;;;;;;48.55;21.73;;;;;;;-3.13;33.22;100910.27;1830827;76;22254;-79
2021/01/19 03:53:37;;;;;;;38.45;18.17;;;;;;;-3.15;33.30;100909.46;1826855;78;21753;-78
2021/01/19 03:56:05;;;;;;;40.38;18.45;;;;;;;-3.17;33.26;100912.16;1811744;78;21030;-78
2021/01/19 03:58:33;;;;;;;39.20;18.12;;;;;;;-3.18;33.19;100909.57;1802886;79;21166;-76
2021/01/19 04:01:03;;;;;;;38.23;18.37;;;;;;;-3.21;33.16;100911.02;1803118;78;21182;-76
2021/01/19 04:03:31;;;;;;;40.70;17.73;;;;;;;-3.24;33.20;100913.30;1818984;77;21387;-77
2021/01/19 04:05:59;;;;;;;42.50;20.20;;;;;;;-3.26;33.28;100908.58;1824119;77;21209;-77
2021/01/19 04:08:27;;;;;;;43.02;19.35;;;;;;;-3.28;33.25;100914.78;1842999;76;21334;-78
2021/01/19 04:10:56;;;;;;;41.33;18.75;;;;;;;-3.30;33.27;100913.54;1806983;78;21466;-78
2021/01/19 04:13:24;;;;;;;39.95;18.15;;;;;;;-3.29;33.26;100911.77;1820976;78;21105;-74
2021/01/19 04:15:53;;;;;;;42.65;19.77;;;;;;;-3.27;33.15;100914.74;1854724;75;22306;-78
2021/01/19 04:18:20;;;;;;;40.80;19.60;;;;;;;-3.28;33.04;100910.84;1838002;77;21157;-80
2021/01/19 04:20:48;;;;;;;43.90;20.23;;;;;;;-3.30;33.02;100920.09;1820966;77;21170;-78
2021/01/19 04:23:16;;;;;;;35.92;17.17;;;;;;;-3.32;33.13;100924.52;1849743;76;21110;-77
2021/01/19 04:25:48;;;;;;;36.35;17.30;;;;;;;-3.30;33.12;100925.78;1816559;77;21143;-77
2021/01/19 04:28:15;;;;;;;46.28;19.40;;;;;;;-3.33;33.05;100929.36;1822429;77;21361;-76
2021/01/19 04:30:44;;;;;;;43.23;18.80;;;;;;;-3.34;33.00;100933.75;1814600;77;21190;-77
2021/01/19 04:33:12;;;;;;;36.20;17.50;;;;;;;-3.31;33.00;100936.72;1799784;79;21172;-78
2021/01/19 04:35:41;;;;;;;40.10;18.50;;;;;;;-3.29;32.98;100941.89;1820016;77;21190;-76
2021/01/19 04:38:09;;;;;;;46.13;23.10;;;;;;;-3.28;32.92;100939.66;1804876;79;21168;-76
2021/01/19 04:40:36;;;;;;;42.62;19.77;;;;;;;-3.25;32.86;100940.41;1804086;79;21357;-77
2021/01/19 04:43:05;;;;;;;47.90;21.48;;;;;;;-3.25;32.88;100950.03;1818154;78;21173;-77
2021/01/19 04:45:33;;;;;;;43.87;20.55;;;;;;;-3.28;32.91;100946.22;1805830;78;21173;-75
2021/01/19 04:48:01;;;;;;;43.75;18.65;;;;;;;-3.26;32.86;100943.95;1805038;79;21173;-76
2021/01/19 04:50:29;;;;;;;40.10;19.27;;;;;;;-3.27;32.83;100954.03;1804575;79;21205;-76
2021/01/19 04:52:59;;;;;;;43.33;19.23;;;;;;;-3.32;32.85;100948.09;1804986;79;21641;-77
2021/01/19 04:55:27;;;;;;;38.98;19.23;;;;;;;-3.36;32.87;100951.73;1808561;78;21106;-77
2021/01/19 04:57:59;;;;;;;40.67;19.37;;;;;;;-3.37;32.91;100960.51;1782549;79;21237;-79
2021/01/19 05:00:35;;;;;;;39.48;19.42;;;;;;;-3.40;32.86;100951.02;1837405;78;21178;-75
2021/01/19 05:03:22;;;;;;;44.58;19.65;;;;;;;-3.40;32.76;100956.25;1837747;78;21455;-78
2021/01/19 05:05:58;;;;;;;41.13;17.90;;;;;;;-3.44;32.69;100959.89;1859764;76;27236;-78
2021/01/19 05:08:42;;;;;;;46.20;20.62;;;;;;;-3.46;32.69;100967.40;1837630;77;21230;-78
2021/01/19 05:11:29;;;;;;;36.63;17.95;;;;;;;-3.48;32.69;100972.70;1829161;78;21547;-76
2021/01/19 05:14:03;;;;;;;39.85;19.42;;;;;;;-3.47;32.67;100973.09;1826686;76;21727;-75
2021/01/19 05:16:33;;;;;;;37.98;17.57;;;;;;;-3.48;32.57;100972.70;1798169;77;21200;-77
2021/01/19 05:19:03;;;;;;;38.92;17.25;;;;;;;-3.47;32.54;100972.25;1843744;77;21233;-76
2021/01/19 05:21:35;;;;;;;39.00;18.23;;;;;;;-3.75;32.80;100974.55;1794774;77;21196;-77
2021/01/19 05:24:10;;;;;;;38.43;17.07;;;;;;;-3.91;33.19;100972.06;1788083;79;22848;-77
2021/01/19 05:26:40;;;;;;;37.15;15.93;;;;;;;-3.91;33.15;100973.38;1775528;80;21105;-76
2021/01/19 05:29:08;;;;;;;41.05;20.37;;;;;;;-3.99;33.22;100973.66;1776308;79;21434;-75
2021/01/19 05:31:36;;;;;;;45.05;20.10;;;;;;;-4.01;33.24;100977.23;1782743;79;21130;-77
2021/01/19 05:34:12;;;;;;;37.67;18.02;;;;;;;-4.03;33.15;100979.05;1755698;80;21571;-78
2021/01/19 05:36:46;;;;;;;37.53;19.47;;;;;;;-4.05;33.21;100976.92;1782997;80;21105;-78
2021/01/19 05:39:19;;;;;;;44.73;19.50;;;;;;;-4.07;33.26;100976.98;1754810;79;21093;-77
2021/01/19 05:41:50;;;;;;;33.00;15.60;;;;;;;-4.07;33.28;100979.61;1766700;80;21369;-77
2021/01/19 05:44:25;;;;;;;38.88;18.90;;;;;;;-4.06;33.37;100981.31;1768956;80;21193;-77
2021/01/19 05:47:05;;;;;;;41.63;19.77;;;;;;;-4.09;33.34;100984.02;1783070;80;21205;-77
2021/01/19 05:49:45;;;;;;;44.55;20.30;;;;;;;-4.11;33.45;100985.84;1755733;80;21663;-79
2021/01/19 05:52:16;;;;;;;43.63;20.20;;;;;;;-4.12;33.49;100984.14;1767495;80;22492;-77
2021/01/19 05:54:50;;;;;;;44.67;20.37;;;;;;;-3.86;33.28;100991.07;1714840;80;22124;-77
2021/01/19 05:57:23;;;;;;;42.40;21.68;;;;;;;-3.51;32.75;100996.83;1763372;80;21185;-76
2021/01/19 05:59:59;;;;;;;40.73;18.92;;;;;;;-3.48;32.82;101000.20;1784476;79;21438;-77
2021/01/19 06:02:43;;;;;;;46.05;23.30;;;;;;;-3.47;32.79;101004.52;1811683;79;21474;-75
2021/01/19 06:05:13;;;;;;;45.85;21.00;;;;;;;-3.45;32.67;101013.19;1787788;79;21197;-77
2021/01/19 06:07:48;;;;;;;40.90;18.27;;;;;;;-3.43;32.74;101013.13;1791050;79;21388;-79
2021/01/19 06:10:22;;;;;;;45.17;21.85;;;;;;;-3.42;32.68;101017.45;1785670;79;21200;-79
2021/01/19 06:12:52;;;;;;;56.23;22.35;;;;;;;-3.44;32.54;101016.66;1795295;78;21165;-76
2021/01/19 06:15:30;;;;;;;46.10;22.37;;;;;;;-3.44;32.58;101016.20;1751225;80;21216;-77
2021/01/19 06:17:58;;;;;;;47.15;23.55;;;;;;;-3.41;32.61;101025.70;1776619;80;21198;-76
2021/01/19 06:20:27;;;;;;;49.48;24.15;;;;;;;-3.42;32.63;101028.77;1772331;80;21507;-78
2021/01/19 06:23:06;;;;;;;39.83;18.80;;;;;;;-3.43;32.65;101028.38;1788999;79;21749;-78
2021/01/19 06:25:34;;;;;;;41.75;19.82;;;;;;;-3.43;32.62;101023.60;1757735;80;21273;-81
2021/01/19 06:28:13;;;;;;;41.50;19.65;;;;;;;-3.41;32.54;101023.92;1762816;80;21225;-79
2021/01/19 06:30:41;;;;;;;40.03;18.73;;;;;;;-3.43;32.48;101021.83;1797105;79;21177;-77
2021/01/19 06:33:11;;;;;;;41.98;19.98;;;;;;;-3.43;32.50;101026.22;1764012;80;22621;-80
2021/01/19 06:35:41;;;;;;;46.70;20.45;;;;;;;-3.40;32.49;101035.28;1763411;78;21225;-81
2021/01/19 06:38:10;;;;;;;42.05;20.90;;;;;;;-3.40;32.53;101028.73;1791652;79;21190;-80
2021/01/19 06:40:39;;;;;;;44.03;19.27;;;;;;;-3.40;32.52;101031.36;1789909;79;21679;-78
2021/01/19 06:43:10;;;;;;;43.87;19.60;;;;;;;-3.40;32.63;101036.59;1758723;79;21158;-79
2021/01/19 06:45:38;;;;;;;44.13;21.62;;;;;;;-3.40;32.65;101035.28;1765825;79;21454;-79
2021/01/19 06:48:07;;;;;;;48.92;22.45;;;;;;;-3.37;32.67;101032.53;1794677;79;21149;-80
2021/01/19 06:50:38;;;;;;;42.45;20.77;;;;;;;-3.36;32.71;101032.92;1771361;80;21139;-78
2021/01/19 06:53:16;;;;;;;46.13;22.00;;;;;;;-3.33;32.68;101032.83;1763777;80;21125;-79
2021/01/19 06:56:12;;;;;;;49.00;22.70;;;;;;;-3.36;32.60;101035.12;1768108;80;21114;-80
2021/01/19 06:58:55;;;;;;;47.62;22.77;;;;;;;-3.30;32.73;101038.42;1763074;80;21200;-77
2021/01/19 07:01:28;;;;;;;51.45;21.33;;;;;;;-3.27;32.68;101044.41;1778757;79;21205;-80
2021/01/19 07:04:27;;;;;;;55.45;24.12;;;;;;;-3.26;32.73;101045.27;1764339;80;21268;-78
2021/01/19 07:07:30;;;;;;;60.35;26.07;;;;;;;-3.23;32.84;101052.53;1775184;79;21526;-77
2021/01/19 07:10:11;;;;;;;48.78;21.05;;;;;;;-3.17;32.73;101049.70;1762848;80;21185;-78
2021/01/19 07:13:02;;;;;;;46.28;22.42;;;;;;;-3.11;32.37;101038.14;1764829;79;21372;-76
2021/01/19 07:16:06;;;;;;;47.40;22.07;;;;;;;-3.10;32.36;101042.00;1765597;80;21252;-79
2021/01/19 07:18:53;;;;;;;41.92;20.72;;;;;;;-3.08;32.25;101040.19;1759401;79;21137;-78
2021/01/19 07:21:26;;;;;;;41.80;19.95;;;;;;;-3.08;32.25;101041.96;1765508;79;21180;-81
2021/01/19 07:24:18;;;;;;;43.65;20.60;;;;;;;-3.08;32.19;101036.72;1776979;79;21220;-79
2021/01/19 07:26:46;;;;;;;51.33;24.25;;;;;;;-3.07;32.18;101043.20;1775301;79;21438;-80
2021/01/19 07:29:16;;;;;;;44.45;19.98;;;;;;;-3.01;32.16;101045.20;1761138;80;22199;-81
2021/01/19 07:31:45;;;;;;;45.35;19.92;;;;;;;-2.93;32.03;101037.44;1756009;80;21252;-84
2021/01/19 07:34:14;;;;;;;50.33;23.27;;;;;;;-2.87;31.92;101047.69;1755732;80;21239;-81
2021/01/19 07:36:44;;;;;;;46.80;22.55;;;;;;;-2.84;31.91;101038.86;1710052;79;21208;-79
2021/01/19 07:39:15;;;;;;;45.40;23.22;;;;;;;-2.80;32.00;101037.83;1749864;80;21209;-79
2021/01/19 07:41:44;;;;;;;46.70;22.62;;;;;;;-2.78;32.03;101033.37;1762770;80;21221;-79
2021/01/19 07:44:22;;;;;;;45.75;20.90;;;;;;;-2.75;31.88;101041.13;1776387;79;21232;-78
2021/01/19 07:46:53;;;;;;;35.08;18.15;;;;;;;-2.70;31.76;101040.49;1762860;80;21204;-81
2021/01/19 07:49:30;;;;;;;45.15;21.68;;;;;;;-2.61;31.55;101045.38;1771171;80;21645;-79
2021/01/19 07:52:10;;;;;;;44.48;20.62;;;;;;;-2.58;31.37;101044.42;1771606;79;21207;-76
2021/01/19 07:54:39;;;;;;;53.68;23.02;;;;;;;-2.49;31.26;101044.52;1768847;79;21137;-78
2021/01/19 07:57:15;;;;;;;52.17;24.87;;;;;;;-2.97;32.07;101041.09;1769332;79;21180;-79
2021/01/19 07:59:44;;;;;;;41.58;18.48;;;;;;;-2.94;32.31;101046.69;1770085;79;21218;-77
2021/01/19 08:02:23;;;;;;;44.88;20.20;;;;;;;-2.84;32.27;101047.58;1792019;78;21093;-78
2021/01/19 08:05:05;;;;;;;42.75;21.55;;;;;;;-2.40;31.51;101046.77;1763465;80;21554;-75
2021/01/19 08:07:42;;;;;;;47.13;23.20;;;;;;;-2.61;31.75;101043.22;1762424;80;21145;-76
2021/01/19 08:10:20;;;;;;;47.65;21.77;;;;;;;-2.18;31.19;101042.36;1777000;79;21166;-76
2021/01/19 08:12:52;;;;;;;47.35;21.95;;;;;;;-1.91;30.90;101041.65;1776979;79;21167;-77
2021/01/19 08:15:34;;;;;;;43.50;22.32;;;;;;;-1.85;30.63;101044.50;1776610;79;21208;-78
2021/01/19 08:18:04;;;;;;;46.00;22.70;;;;;;;-1.80;30.61;101045.16;1763082;79;21498;-77
2021/01/19 08:20:37;;;;;;;59.30;25.25;;;;;;;-1.71;30.54;101047.39;1769667;79;21204;-76
2021/01/19 08:23:16;;;;;;;42.20;19.10;;;;;;;-1.62;30.54;101045.68;1773346;79;21185;-78
2021/01/19 08:25:45;;;;;;;40.03;20.67;;;;;;;-1.52;30.48;101051.38;1772068;79;21471;-80
2021/01/19 08:28:14;;;;;;;34.83;18.65;;;;;;;-1.45;30.11;101042.33;1770822;79;21217;-78
2021/01/19 08:30:45;;;;;;;37.35;20.37;;;;;;;-1.39;30.03;101046.45;1765775;80;21778;-78
2021/01/19 08:33:13;;;;;;;39.98;19.98;;;;;;;-1.31;30.03;101036.00;1767579;80;21200;-78
2021/01/19 08:35:41;;;;;;;40.15;19.75;;;;;;;-1.22;30.00;101034.73;1761534;80;21691;-79
2021/01/19 08:38:09;;;;;;;42.90;22.20;;;;;;;-1.11;29.95;101039.50;1746121;82;21181;-77
2021/01/19 08:40:40;;;;;;;36.35;19.12;;;;;;;-1.03;29.96;101038.69;1758378;80;21190;-81
2021/01/19 08:43:09;;;;;;;40.65;19.62;;;;;;;-0.95;29.83;101033.06;1770644;79;21209;-78
2021/01/19 08:45:38;;;;;;;39.92;18.07;;;;;;;-0.93;29.78;101032.55;1792826;79;21288;-79
2021/01/19 08:48:10;;;;;;;38.28;17.12;;;;;;;-0.94;29.63;101030.84;1768926;79;21261;-80
2021/01/19 08:50:41;;;;;;;38.15;20.05;;;;;;;-0.91;29.55;101030.68;1766739;79;21185;-78
2021/01/19 08:53:13;;;;;;;37.50;18.52;;;;;;;-0.95;29.52;101030.43;1744377;79;21185;-78
2021/01/19 08:55:43;;;;;;;40.58;20.62;;;;;;;-0.93;29.69;101031.23;1771739;79;21388;-78
2021/01/19 08:58:19;;;;;;;46.70;22.35;;;;;;;-0.88;29.61;101030.55;1761803;80;21705;-78
2021/01/19 09:00:49;;;;;;;41.65;18.90;;;;;;;-0.85;29.63;101034.37;1758181;80;21194;-77
2021/01/19 09:03:19;;;;;;;36.58;18.50;;;;;;;-0.82;29.57;101024.99;1762305;80;21250;-78
2021/01/19 09:05:49;;;;;;;36.50;17.62;;;;;;;-0.80;29.54;101021.84;1759299;80;21184;-79
2021/01/19 09:08:19;;;;;;;38.95;19.05;;;;;;;-0.78;29.36;101026.09;1773542;79;21360;-79
2021/01/19 09:10:49;;;;;;;35.23;18.80;;;;;;;-0.78;29.25;101018.67;1759053;80;21196;-79
2021/01/19 09:13:19;;;;;;;42.45;21.52;;;;;;;-0.75;29.03;101016.37;1756607;80;21196;-81
2021/01/19 09:15:47;;;;;;;39.27;19.07;;;;;;;-0.77;28.97;101019.09;1766068;80;21192;-79
2021/01/19 09:18:18;;;;;;;43.83;21.40;;;;;;;-0.74;29.16;101011.50;1758484;80;21255;-77
2021/01/19 09:20:51;;;;;;;38.63;18.50;;;;;;;-0.73;29.40;101011.88;1753070;79;21380;-75
2021/01/19 09:23:28;;;;;;;35.58;18.67;;;;;;;-0.68;29.36;101015.14;1765078;80;21244;-76
2021/01/19 09:26:04;;;;;;;33.92;17.50;;;;;;;-0.69;28.95;101012.98;1790659;78;21192;-75
2021/01/19 09:28:36;;;;;;;35.98;17.10;;;;;;;-0.75;28.82;101014.59;1782465;79;21209;-79
2021/01/19 09:31:17;;;;;;;35.15;17.73;;;;;;;-0.79;28.91;101007.77;1775443;80;21181;-81
2021/01/19 09:33:52;;;;;;;35.15;17.67;;;;;;;-0.83;28.90;101008.37;1778309;80;21665;-79
2021/01/19 09:36:22;;;;;;;32.05;16.48;;;;;;;-0.80;28.80;101011.33;1780879;80;21182;-81
2021/01/19 09:38:54;;;;;;;33.28;16.90;;;;;;;-0.73;28.92;101003.52;1769308;79;21281;-80
2021/01/19 09:41:26;;;;;;;36.90;19.12;;;;;;;-0.68;28.76;101004.19;1769457;79;21203;-80
2021/01/19 09:43:55;;;;;;;36.28;18.52;;;;;;;-0.71;28.77;101005.63;1766831;79;21533;-77
2021/01/19 09:46:25;;;;;;;36.60;19.02;;;;;;;-0.76;28.78;100999.73;1768354;80;21487;-76
2021/01/19 09:48:58;;;;;;;36.05;18.52;;;;;;;-0.70;28.98;101003.38;1771881;80;21148;-77
2021/01/19 09:51:29;;;;;;;40.45;17.50;;;;;;;-1.15;29.35;100999.34;1765273;80;21589;-80
2021/01/19 09:53:58;;;;;;;45.52;19.92;;;;;;;-1.30;29.47;100998.73;1773591;80;21141;-77
2021/01/19 09:56:26;;;;;;;38.30;17.73;;;;;;;-1.35;29.39;100995.47;1773852;79;21140;-76
2021/01/19 09:59:04;;;;;;;44.42;20.32;;;;;;;-0.97;29.00;100994.16;1777520;80;21431;-77
2021/01/19 10:01:33;;;;;;;44.88;21.02;;;;;;;-0.86;28.92;100994.06;1763151;80;21184;-78
2021/01/19 10:06:37;;;;;;;35.23;17.70;;;;;;;-0.69;28.99;100981.41;1811512;79;22355;-78
2021/01/19 10:09:06;;;;;;;38.50;20.12;;;;;;;-0.66;28.77;100981.27;1782374;79;21284;-79
2021/01/19 10:11:35;;;;;;;39.23;18.98;;;;;;;-0.62;28.73;100977.57;1743958;79;21392;-78
2021/01/19 10:14:16;;;;;;;39.03;19.15;;;;;;;-0.59;28.67;100980.06;1789461;79;21559;-77
2021/01/19 10:16:48;;;;;;;41.37;21.00;;;;;;;-0.61;28.32;100977.10;1754322;80;21158;-78
2021/01/19 10:19:21;;;;;;;37.55;18.52;;;;;;;-0.58;28.31;100978.28;1784953;79;21129;-77
2021/01/19 10:21:51;;;;;;;38.15;18.20;;;;;;;-0.60;28.41;100973.54;1788381;79;21109;-81
2021/01/19 10:24:21;;;;;;;44.58;22.42;;;;;;;-0.60;28.46;100977.02;1774306;80;21370;-80
2021/01/19 10:27:07;;;;;;;41.02;19.50;;;;;;;-0.56;28.54;100972.00;1766332;80;21205;-80
2021/01/19 10:29:43;;;;;;;38.63;19.57;;;;;;;-0.49;28.41;100970.41;1791317;79;21210;-79
2021/01/19 10:32:14;;;;;;;37.20;19.17;;;;;;;-0.47;28.55;100968.53;1766184;80;21211;-83
2021/01/19 10:34:48;;;;;;;39.33;22.05;;;;;;;-0.45;28.55;100968.02;1767029;80;21204;-79
2021/01/19 10:37:17;;;;;;;39.92;20.57;;;;;;;-0.47;28.53;100964.12;1773928;80;21327;-79
2021/01/19 10:39:50;;;;;;;36.20;20.65;;;;;;;-0.43;28.78;100960.88;1767956;79;21149;-81
2021/01/19 10:42:28;;;;;;;46.10;23.10;;;;;;;-0.37;28.72;100964.52;1770448;80;21205;-77
2021/01/19 10:45:05;;;;;;;43.17;18.87;;;;;;;-0.36;28.56;100957.03;1775446;79;21208;-77
2021/01/19 10:47:41;;;;;;;44.73;21.57;;;;;;;-0.37;28.47;100957.94;1766326;80;21206;-76
2021/01/19 10:50:27;;;;;;;38.20;19.12;;;;;;;-0.48;28.54;100953.21;1765711;80;21213;-78
2021/01/19 10:53:03;;;;;;;36.30;17.27;;;;;;;-0.50;28.77;100949.79;1792281;79;21201;-77
2021/01/19 10:55:33;;;;;;;43.83;20.60;;;;;;;-0.47;28.75;100943.53;1785311;80;21094;-79
2021/01/19 10:58:04;;;;;;;43.55;22.25;;;;;;;-0.46;28.98;100946.08;1769794;79;21101;-78
2021/01/19 11:00:33;;;;;;;43.17;21.90;;;;;;;-0.43;28.91;100949.89;1765773;80;21400;-80
2021/01/19 11:03:02;;;;;;;38.70;20.68;;;;;;;-0.41;28.79;100941.47;1768399;79;22061;-78
2021/01/19 11:05:31;;;;;;;37.05;19.85;;;;;;;-0.48;28.64;100944.47;1768330;79;21157;-77
2021/01/19 11:07:59;;;;;;;37.40;17.80;;;;;;;-0.53;28.80;100940.28;1764733;80;21975;-77
2021/01/19 11:10:27;;;;;;;36.60;20.12;;;;;;;-0.56;28.80;100939.11;1770884;80;21118;-79
2021/01/19 11:12:55;;;;;;;39.45;20.60;;;;;;;-0.59;29.01;100935.34;1742985;80;21149;-78
2021/01/19 11:15:30;;;;;;;44.15;21.77;;;;;;;-0.59;28.98;100933.14;1768903;79;21439;-79
2021/01/19 11:18:01;;;;;;;36.15;18.82;;;;;;;-0.64;28.81;100929.89;1773662;79;21158;-77
2021/01/19 11:20:32;;;;;;;48.68;23.57;;;;;;;-0.65;28.93;100932.14;1765646;78;21739;-77
2021/01/19 11:23:00;;;;;;;39.85;19.70;;;;;;;-0.68;28.96;100929.20;1730562;80;22470;-77
2021/01/19 11:25:30;;;;;;;41.48;21.35;;;;;;;-0.70;29.03;100921.84;1759366;80;21241;-76
2021/01/19 11:28:00;;;;;;;50.60;20.23;;;;;;;-0.72;29.11;100925.48;1784874;79;22263;-76
2021/01/19 11:30:35;;;;;;;36.25;19.07;;;;;;;-0.75;28.99;100925.16;1765453;80;21248;-80
2021/01/19 11:33:04;;;;;;;31.95;17.40;;;;;;;-0.75;29.25;100919.90;1791611;79;21177;-79
2021/01/19 11:35:35;;;;;;;39.25;18.80;;;;;;;-0.76;29.04;100926.09;1760104;80;21260;-76
2021/01/19 11:38:03;;;;;;;42.33;19.77;;;;;;;-0.84;28.99;100921.66;1786665;79;21161;-78